sensor_id;sensor_type;location;lat;lon;timestamp;temperature;humidity
67529;DHT22;54366;51.980;5.856;2022-08-06T00:01:51;16.50;61.00
67529;DHT22;54366;51.980;5.856;2022-08-06T00:04:18;16.50;61.10
67529;DHT22;54366;51.980;5.856;2022-08-06T00:06:45;16.50;61.10
67529;DHT22;54366;51.980;5.856;2022-08-06T00:09:11;16.40;61.30
67529;DHT22;54366;51.980;5.856;2022-08-06T00:11:38;16.40;61.30
67529;DHT22;54366;51.980;5.856;2022-08-06T00:14:05;16.30;61.30
67529;DHT22;54366;51.980;5.856;2022-08-06T00:16:31;16.40;61.60
67529;DHT22;54366;51.980;5.856;2022-08-06T00:18:58;16.30;61.70
67529;DHT22;54366;51.980;5.856;2022-08-06T00:21:24;16.30;61.90
67529;DHT22;54366;51.980;5.856;2022-08-06T00:23:50;16.30;62.10
67529;DHT22;54366;51.980;5.856;2022-08-06T00:26:16;16.30;62.10
67529;DHT22;54366;51.980;5.856;2022-08-06T00:28:43;16.30;62.50
67529;DHT22;54366;51.980;5.856;2022-08-06T00:31:09;16.20;62.50
67529;DHT22;54366;51.980;5.856;2022-08-06T00:33:35;16.30;62.50
67529;DHT22;54366;51.980;5.856;2022-08-06T00:36:02;16.30;62.30
67529;DHT22;54366;51.980;5.856;2022-08-06T00:38:29;16.30;62.30
67529;DHT22;54366;51.980;5.856;2022-08-06T00:40:55;16.30;62.40
67529;DHT22;54366;51.980;5.856;2022-08-06T00:43:22;16.20;62.70
67529;DHT22;54366;51.980;5.856;2022-08-06T00:45:49;16.20;62.20
67529;DHT22;54366;51.980;5.856;2022-08-06T00:48:15;16.20;62.10
67529;DHT22;54366;51.980;5.856;2022-08-06T00:50:41;16.20;61.90
67529;DHT22;54366;51.980;5.856;2022-08-06T00:53:07;16.10;62.10
67529;DHT22;54366;51.980;5.856;2022-08-06T00:55:34;16.10;62.10
67529;DHT22;54366;51.980;5.856;2022-08-06T00:58:01;16.10;62.50
67529;DHT22;54366;51.980;5.856;2022-08-06T01:00:27;16.00;62.80
67529;DHT22;54366;51.980;5.856;2022-08-06T01:02:53;16.00;63.10
67529;DHT22;54366;51.980;5.856;2022-08-06T01:05:19;16.00;62.70
67529;DHT22;54366;51.980;5.856;2022-08-06T01:07:45;16.00;63.10
67529;DHT22;54366;51.980;5.856;2022-08-06T01:10:12;16.00;63.30
67529;DHT22;54366;51.980;5.856;2022-08-06T01:12:38;16.00;63.30
67529;DHT22;54366;51.980;5.856;2022-08-06T01:15:05;16.00;63.40
67529;DHT22;54366;51.980;5.856;2022-08-06T01:17:37;16.00;63.40
67529;DHT22;54366;51.980;5.856;2022-08-06T01:28:35;16.00;62.90
67529;DHT22;54366;51.980;5.856;2022-08-06T01:31:09;16.00;62.70
67529;DHT22;54366;51.980;5.856;2022-08-06T01:33:44;16.00;62.70
67529;DHT22;54366;51.980;5.856;2022-08-06T01:36:17;15.90;62.50
67529;DHT22;54366;51.980;5.856;2022-08-06T01:38:49;15.90;62.50
67529;DHT22;54366;51.980;5.856;2022-08-06T01:41:20;15.90;62.90
67529;DHT22;54366;51.980;5.856;2022-08-06T01:44:09;15.90;62.70
67529;DHT22;54366;51.980;5.856;2022-08-06T01:46:39;15.90;62.60
67529;DHT22;54366;51.980;5.856;2022-08-06T01:49:08;16.00;62.40
67529;DHT22;54366;51.980;5.856;2022-08-06T01:51:37;15.80;62.80
67529;DHT22;54366;51.980;5.856;2022-08-06T01:54:08;15.80;63.20
67529;DHT22;54366;51.980;5.856;2022-08-06T01:56:39;15.80;63.80
67529;DHT22;54366;51.980;5.856;2022-08-06T01:59:07;15.80;63.70
67529;DHT22;54366;51.980;5.856;2022-08-06T02:01:35;15.80;63.60
67529;DHT22;54366;51.980;5.856;2022-08-06T02:04:03;15.70;63.80
67529;DHT22;54366;51.980;5.856;2022-08-06T02:06:33;15.70;64.00
67529;DHT22;54366;51.980;5.856;2022-08-06T02:09:09;15.70;64.00
67529;DHT22;54366;51.980;5.856;2022-08-06T02:11:38;15.70;64.50
67529;DHT22;54366;51.980;5.856;2022-08-06T02:14:07;15.70;64.00
67529;DHT22;54366;51.980;5.856;2022-08-06T02:16:37;15.70;63.70
67529;DHT22;54366;51.980;5.856;2022-08-06T02:19:05;15.70;63.40
67529;DHT22;54366;51.980;5.856;2022-08-06T02:21:33;15.60;63.40
67529;DHT22;54366;51.980;5.856;2022-08-06T02:24:03;15.60;63.50
67529;DHT22;54366;51.980;5.856;2022-08-06T02:26:31;15.60;63.50
67529;DHT22;54366;51.980;5.856;2022-08-06T02:29:01;15.50;63.60
67529;DHT22;54366;51.980;5.856;2022-08-06T02:31:27;15.50;63.50
67529;DHT22;54366;51.980;5.856;2022-08-06T02:33:54;15.50;63.50
67529;DHT22;54366;51.980;5.856;2022-08-06T02:36:28;15.40;63.60
67529;DHT22;54366;51.980;5.856;2022-08-06T02:42:20;15.30;64.00
67529;DHT22;54366;51.980;5.856;2022-08-06T02:45:15;15.30;63.90
67529;DHT22;54366;51.980;5.856;2022-08-06T02:50:35;15.20;64.10
67529;DHT22;54366;51.980;5.856;2022-08-06T02:53:08;15.10;64.60
67529;DHT22;54366;51.980;5.856;2022-08-06T02:55:36;15.10;64.80
67529;DHT22;54366;51.980;5.856;2022-08-06T03:01:18;15.00;64.40
67529;DHT22;54366;51.980;5.856;2022-08-06T03:03:49;15.00;64.30
67529;DHT22;54366;51.980;5.856;2022-08-06T03:06:18;15.00;65.20
67529;DHT22;54366;51.980;5.856;2022-08-06T03:08:45;14.90;65.00
67529;DHT22;54366;51.980;5.856;2022-08-06T03:11:12;14.90;65.10
67529;DHT22;54366;51.980;5.856;2022-08-06T03:13:40;15.00;65.60
67529;DHT22;54366;51.980;5.856;2022-08-06T03:16:09;14.90;66.30
67529;DHT22;54366;51.980;5.856;2022-08-06T03:18:35;14.90;66.40
67529;DHT22;54366;51.980;5.856;2022-08-06T03:21:02;14.90;66.40
67529;DHT22;54366;51.980;5.856;2022-08-06T03:23:30;14.90;66.80
67529;DHT22;54366;51.980;5.856;2022-08-06T03:25:57;14.90;66.90
67529;DHT22;54366;51.980;5.856;2022-08-06T03:28:24;14.90;66.70
67529;DHT22;54366;51.980;5.856;2022-08-06T03:30:52;14.90;66.70
67529;DHT22;54366;51.980;5.856;2022-08-06T03:33:19;14.90;67.20
67529;DHT22;54366;51.980;5.856;2022-08-06T03:35:46;14.90;67.10
67529;DHT22;54366;51.980;5.856;2022-08-06T03:38:14;14.90;67.20
67529;DHT22;54366;51.980;5.856;2022-08-06T03:40:43;14.90;67.30
67529;DHT22;54366;51.980;5.856;2022-08-06T03:43:10;14.90;67.50
67529;DHT22;54366;51.980;5.856;2022-08-06T03:45:41;14.80;68.10
67529;DHT22;54366;51.980;5.856;2022-08-06T03:48:12;14.80;67.70
67529;DHT22;54366;51.980;5.856;2022-08-06T03:50:42;14.80;67.70
67529;DHT22;54366;51.980;5.856;2022-08-06T03:53:20;14.80;67.80
67529;DHT22;54366;51.980;5.856;2022-08-06T03:55:49;14.80;68.00
67529;DHT22;54366;51.980;5.856;2022-08-06T03:58:17;14.80;67.90
67529;DHT22;54366;51.980;5.856;2022-08-06T04:01:04;14.80;68.00
67529;DHT22;54366;51.980;5.856;2022-08-06T04:03:32;14.70;68.20
67529;DHT22;54366;51.980;5.856;2022-08-06T04:06:00;14.70;68.10
67529;DHT22;54366;51.980;5.856;2022-08-06T04:08:27;14.60;68.40
67529;DHT22;54366;51.980;5.856;2022-08-06T04:10:54;14.60;68.50
67529;DHT22;54366;51.980;5.856;2022-08-06T04:13:23;14.60;68.60
67529;DHT22;54366;51.980;5.856;2022-08-06T04:15:50;14.60;68.70
67529;DHT22;54366;51.980;5.856;2022-08-06T04:18:21;14.60;68.30
67529;DHT22;54366;51.980;5.856;2022-08-06T04:20:51;14.60;68.10
67529;DHT22;54366;51.980;5.856;2022-08-06T04:23:18;14.70;67.90
67529;DHT22;54366;51.980;5.856;2022-08-06T04:25:54;14.60;68.00
67529;DHT22;54366;51.980;5.856;2022-08-06T04:28:23;14.60;67.70
67529;DHT22;54366;51.980;5.856;2022-08-06T04:30:50;14.70;67.60
67529;DHT22;54366;51.980;5.856;2022-08-06T04:33:19;14.60;68.20
67529;DHT22;54366;51.980;5.856;2022-08-06T04:35:46;14.60;68.70
67529;DHT22;54366;51.980;5.856;2022-08-06T04:38:15;14.70;68.90
67529;DHT22;54366;51.980;5.856;2022-08-06T04:40:42;14.60;68.40
67529;DHT22;54366;51.980;5.856;2022-08-06T04:43:10;14.70;68.50
67529;DHT22;54366;51.980;5.856;2022-08-06T04:45:39;14.70;68.40
67529;DHT22;54366;51.980;5.856;2022-08-06T04:48:08;14.70;68.80
67529;DHT22;54366;51.980;5.856;2022-08-06T04:50:35;14.70;68.70
67529;DHT22;54366;51.980;5.856;2022-08-06T04:53:10;14.70;68.70
67529;DHT22;54366;51.980;5.856;2022-08-06T04:55:37;14.60;68.50
67529;DHT22;54366;51.980;5.856;2022-08-06T04:58:07;14.60;68.70
67529;DHT22;54366;51.980;5.856;2022-08-06T05:00:44;14.60;68.80
67529;DHT22;54366;51.980;5.856;2022-08-06T05:03:10;14.60;68.70
67529;DHT22;54366;51.980;5.856;2022-08-06T05:05:47;14.60;68.80
67529;DHT22;54366;51.980;5.856;2022-08-06T05:08:17;14.60;69.10
67529;DHT22;54366;51.980;5.856;2022-08-06T05:10:53;14.60;68.90
67529;DHT22;54366;51.980;5.856;2022-08-06T05:13:22;14.60;69.30
67529;DHT22;54366;51.980;5.856;2022-08-06T05:15:53;14.60;69.10
67529;DHT22;54366;51.980;5.856;2022-08-06T05:18:25;14.60;69.50
67529;DHT22;54366;51.980;5.856;2022-08-06T05:20:53;14.60;70.00
67529;DHT22;54366;51.980;5.856;2022-08-06T05:23:34;14.60;70.20
67529;DHT22;54366;51.980;5.856;2022-08-06T05:26:01;14.70;70.30
67529;DHT22;54366;51.980;5.856;2022-08-06T05:28:27;14.70;70.60
67529;DHT22;54366;51.980;5.856;2022-08-06T05:30:54;14.70;70.70
67529;DHT22;54366;51.980;5.856;2022-08-06T05:33:25;14.80;70.70
67529;DHT22;54366;51.980;5.856;2022-08-06T05:35:53;14.80;70.80
67529;DHT22;54366;51.980;5.856;2022-08-06T05:38:19;14.80;71.00
67529;DHT22;54366;51.980;5.856;2022-08-06T05:40:45;14.80;70.90
67529;DHT22;54366;51.980;5.856;2022-08-06T05:43:11;14.80;70.90
67529;DHT22;54366;51.980;5.856;2022-08-06T05:45:40;14.90;71.10
67529;DHT22;54366;51.980;5.856;2022-08-06T05:48:08;14.90;70.90
67529;DHT22;54366;51.980;5.856;2022-08-06T05:50:39;14.90;70.70
67529;DHT22;54366;51.980;5.856;2022-08-06T05:53:11;15.00;70.50
67529;DHT22;54366;51.980;5.856;2022-08-06T05:55:54;14.90;70.40
67529;DHT22;54366;51.980;5.856;2022-08-06T05:58:33;15.00;71.00
67529;DHT22;54366;51.980;5.856;2022-08-06T06:01:04;15.00;70.90
67529;DHT22;54366;51.980;5.856;2022-08-06T06:03:31;15.10;71.10
67529;DHT22;54366;51.980;5.856;2022-08-06T06:05:59;15.10;71.30
67529;DHT22;54366;51.980;5.856;2022-08-06T06:08:26;15.20;71.20
67529;DHT22;54366;51.980;5.856;2022-08-06T06:10:53;15.20;71.30
67529;DHT22;54366;51.980;5.856;2022-08-06T06:13:21;15.30;71.30
67529;DHT22;54366;51.980;5.856;2022-08-06T06:16:03;15.30;71.60
67529;DHT22;54366;51.980;5.856;2022-08-06T06:27:01;15.90;69.00
67529;DHT22;54366;51.980;5.856;2022-08-06T06:32:13;16.20;67.60
67529;DHT22;54366;51.980;5.856;2022-08-06T06:40:12;16.50;65.80
67529;DHT22;54366;51.980;5.856;2022-08-06T06:45:27;16.60;65.30
67529;DHT22;54366;51.980;5.856;2022-08-06T06:48:02;16.80;65.40
67529;DHT22;54366;51.980;5.856;2022-08-06T06:50:32;17.00;65.10
67529;DHT22;54366;51.980;5.856;2022-08-06T06:53:00;17.10;64.80
67529;DHT22;54366;51.980;5.856;2022-08-06T06:55:40;17.30;64.80
67529;DHT22;54366;51.980;5.856;2022-08-06T06:58:10;17.40;64.80
67529;DHT22;54366;51.980;5.856;2022-08-06T07:00:38;17.60;64.40
67529;DHT22;54366;51.980;5.856;2022-08-06T07:03:06;17.70;64.20
67529;DHT22;54366;51.980;5.856;2022-08-06T07:05:35;17.90;64.00
67529;DHT22;54366;51.980;5.856;2022-08-06T07:08:04;18.00;63.20
67529;DHT22;54366;51.980;5.856;2022-08-06T07:10:32;18.10;62.50
67529;DHT22;54366;51.980;5.856;2022-08-06T07:12:59;18.20;61.60
67529;DHT22;54366;51.980;5.856;2022-08-06T07:15:26;18.20;61.50
67529;DHT22;54366;51.980;5.856;2022-08-06T07:17:53;18.30;62.40
67529;DHT22;54366;51.980;5.856;2022-08-06T07:20:23;18.30;61.80
67529;DHT22;54366;51.980;5.856;2022-08-06T07:22:52;18.40;61.30
67529;DHT22;54366;51.980;5.856;2022-08-06T07:25:20;18.50;60.60
67529;DHT22;54366;51.980;5.856;2022-08-06T07:27:50;18.60;60.70
67529;DHT22;54366;51.980;5.856;2022-08-06T07:30:18;18.70;60.50
67529;DHT22;54366;51.980;5.856;2022-08-06T07:32:45;18.80;60.00
67529;DHT22;54366;51.980;5.856;2022-08-06T07:35:12;19.00;59.70
67529;DHT22;54366;51.980;5.856;2022-08-06T07:37:49;19.00;58.60
67529;DHT22;54366;51.980;5.856;2022-08-06T07:40:23;19.20;58.40
67529;DHT22;54366;51.980;5.856;2022-08-06T07:42:55;19.20;58.00
67529;DHT22;54366;51.980;5.856;2022-08-06T07:45:27;19.30;57.50
67529;DHT22;54366;51.980;5.856;2022-08-06T07:47:56;19.30;57.30
67529;DHT22;54366;51.980;5.856;2022-08-06T07:50:24;19.50;57.60
67529;DHT22;54366;51.980;5.856;2022-08-06T07:52:54;19.60;57.30
67529;DHT22;54366;51.980;5.856;2022-08-06T07:55:22;19.70;56.80
67529;DHT22;54366;51.980;5.856;2022-08-06T07:57:53;19.80;56.50
67529;DHT22;54366;51.980;5.856;2022-08-06T08:00:21;19.90;56.30
67529;DHT22;54366;51.980;5.856;2022-08-06T08:02:49;20.00;55.80
67529;DHT22;54366;51.980;5.856;2022-08-06T08:05:36;20.10;55.20
67529;DHT22;54366;51.980;5.856;2022-08-06T08:08:22;20.20;55.30
67529;DHT22;54366;51.980;5.856;2022-08-06T08:10:52;20.40;52.40
67529;DHT22;54366;51.980;5.856;2022-08-06T08:13:19;20.40;52.60
67529;DHT22;54366;51.980;5.856;2022-08-06T08:15:46;20.40;53.20
67529;DHT22;54366;51.980;5.856;2022-08-06T08:18:14;20.50;52.90
67529;DHT22;54366;51.980;5.856;2022-08-06T08:20:42;20.60;52.10
67529;DHT22;54366;51.980;5.856;2022-08-06T08:23:12;20.80;51.00
67529;DHT22;54366;51.980;5.856;2022-08-06T08:25:38;20.90;51.90
67529;DHT22;54366;51.980;5.856;2022-08-06T08:28:06;21.00;51.70
67529;DHT22;54366;51.980;5.856;2022-08-06T08:30:32;21.10;48.60
67529;DHT22;54366;51.980;5.856;2022-08-06T08:32:58;21.00;49.20
67529;DHT22;54366;51.980;5.856;2022-08-06T08:35:24;21.00;50.10
67529;DHT22;54366;51.980;5.856;2022-08-06T08:37:51;21.00;50.00
67529;DHT22;54366;51.980;5.856;2022-08-06T08:40:17;21.00;48.50
67529;DHT22;54366;51.980;5.856;2022-08-06T08:42:46;21.00;47.60
67529;DHT22;54366;51.980;5.856;2022-08-06T08:45:13;21.00;48.20
67529;DHT22;54366;51.980;5.856;2022-08-06T08:47:53;21.10;49.00
67529;DHT22;54366;51.980;5.856;2022-08-06T08:50:21;21.30;49.30
67529;DHT22;54366;51.980;5.856;2022-08-06T08:52:50;21.60;48.90
67529;DHT22;54366;51.980;5.856;2022-08-06T08:55:21;21.80;48.70
67529;DHT22;54366;51.980;5.856;2022-08-06T08:57:50;21.70;46.40
67529;DHT22;54366;51.980;5.856;2022-08-06T09:00:19;21.70;46.40
67529;DHT22;54366;51.980;5.856;2022-08-06T09:02:45;21.70;46.30
67529;DHT22;54366;51.980;5.856;2022-08-06T09:05:11;21.80;45.70
67529;DHT22;54366;51.980;5.856;2022-08-06T09:07:38;21.60;46.00
67529;DHT22;54366;51.980;5.856;2022-08-06T09:10:07;21.50;46.70
67529;DHT22;54366;51.980;5.856;2022-08-06T09:12:33;21.40;46.70
67529;DHT22;54366;51.980;5.856;2022-08-06T09:15:00;21.40;46.30
67529;DHT22;54366;51.980;5.856;2022-08-06T09:17:28;21.60;46.50
67529;DHT22;54366;51.980;5.856;2022-08-06T09:19:55;21.80;44.10
67529;DHT22;54366;51.980;5.856;2022-08-06T09:22:22;22.00;43.70
67529;DHT22;54366;51.980;5.856;2022-08-06T09:24:48;22.20;43.90
67529;DHT22;54366;51.980;5.856;2022-08-06T09:27:16;22.40;44.00
67529;DHT22;54366;51.980;5.856;2022-08-06T09:29:54;22.60;43.60
67529;DHT22;54366;51.980;5.856;2022-08-06T09:32:41;22.90;43.60
67529;DHT22;54366;51.980;5.856;2022-08-06T09:35:19;23.10;42.10
67529;DHT22;54366;51.980;5.856;2022-08-06T09:37:46;23.40;40.50
67529;DHT22;54366;51.980;5.856;2022-08-06T09:40:14;23.60;40.70
67529;DHT22;54366;51.980;5.856;2022-08-06T09:42:43;23.70;40.20
67529;DHT22;54366;51.980;5.856;2022-08-06T09:45:12;23.80;39.50
67529;DHT22;54366;51.980;5.856;2022-08-06T09:47:39;23.80;35.90
67529;DHT22;54366;51.980;5.856;2022-08-06T09:50:06;23.80;35.70
67529;DHT22;54366;51.980;5.856;2022-08-06T09:52:33;23.90;37.20
67529;DHT22;54366;51.980;5.856;2022-08-06T09:55:00;24.10;37.00
67529;DHT22;54366;51.980;5.856;2022-08-06T09:57:41;24.30;37.20
67529;DHT22;54366;51.980;5.856;2022-08-06T10:00:08;24.50;36.90
67529;DHT22;54366;51.980;5.856;2022-08-06T10:02:35;24.60;35.00
67529;DHT22;54366;51.980;5.856;2022-08-06T10:05:13;24.50;36.10
67529;DHT22;54366;51.980;5.856;2022-08-06T10:07:39;24.60;35.80
67529;DHT22;54366;51.980;5.856;2022-08-06T10:10:07;24.60;36.10
67529;DHT22;54366;51.980;5.856;2022-08-06T10:12:33;24.70;36.40
67529;DHT22;54366;51.980;5.856;2022-08-06T10:14:59;24.90;36.80
67529;DHT22;54366;51.980;5.856;2022-08-06T10:17:26;25.00;36.30
67529;DHT22;54366;51.980;5.856;2022-08-06T10:20:10;25.10;36.40
67529;DHT22;54366;51.980;5.856;2022-08-06T10:22:52;25.30;34.80
67529;DHT22;54366;51.980;5.856;2022-08-06T10:25:20;25.40;35.40
67529;DHT22;54366;51.980;5.856;2022-08-06T10:27:48;25.30;35.40
67529;DHT22;54366;51.980;5.856;2022-08-06T10:30:15;25.00;35.80
67529;DHT22;54366;51.980;5.856;2022-08-06T10:33:02;24.80;35.70
67529;DHT22;54366;51.980;5.856;2022-08-06T10:35:31;24.60;35.90
67529;DHT22;54366;51.980;5.856;2022-08-06T10:38:02;24.50;36.00
67529;DHT22;54366;51.980;5.856;2022-08-06T10:40:33;24.20;35.90
67529;DHT22;54366;51.980;5.856;2022-08-06T10:43:03;24.10;36.60
67529;DHT22;54366;51.980;5.856;2022-08-06T10:45:32;24.20;36.30
67529;DHT22;54366;51.980;5.856;2022-08-06T10:47:59;24.30;36.30
67529;DHT22;54366;51.980;5.856;2022-08-06T10:50:26;24.50;35.30
67529;DHT22;54366;51.980;5.856;2022-08-06T10:52:53;24.40;35.60
67529;DHT22;54366;51.980;5.856;2022-08-06T10:55:20;24.30;36.30
67529;DHT22;54366;51.980;5.856;2022-08-06T10:57:47;24.30;36.70
67529;DHT22;54366;51.980;5.856;2022-08-06T11:00:14;24.30;37.00
67529;DHT22;54366;51.980;5.856;2022-08-06T11:02:51;24.00;37.70
67529;DHT22;54366;51.980;5.856;2022-08-06T11:05:27;23.90;38.40
67529;DHT22;54366;51.980;5.856;2022-08-06T11:10:56;24.10;37.30
67529;DHT22;54366;51.980;5.856;2022-08-06T11:13:46;24.50;36.00
67529;DHT22;54366;51.980;5.856;2022-08-06T11:16:25;24.50;37.30
67529;DHT22;54366;51.980;5.856;2022-08-06T11:19:05;24.50;37.70
67529;DHT22;54366;51.980;5.856;2022-08-06T11:21:46;24.50;36.80
67529;DHT22;54366;51.980;5.856;2022-08-06T11:24:13;24.60;36.10
67529;DHT22;54366;51.980;5.856;2022-08-06T11:26:43;25.00;35.90
67529;DHT22;54366;51.980;5.856;2022-08-06T11:29:13;25.20;35.60
67529;DHT22;54366;51.980;5.856;2022-08-06T11:31:47;25.40;34.80
67529;DHT22;54366;51.980;5.856;2022-08-06T11:34:16;25.60;35.40
67529;DHT22;54366;51.980;5.856;2022-08-06T11:36:54;25.50;34.30
67529;DHT22;54366;51.980;5.856;2022-08-06T11:39:24;25.40;34.80
67529;DHT22;54366;51.980;5.856;2022-08-06T11:41:54;25.30;35.00
67529;DHT22;54366;51.980;5.856;2022-08-06T11:44:23;25.10;35.20
67529;DHT22;54366;51.980;5.856;2022-08-06T11:47:09;24.90;35.00
67529;DHT22;54366;51.980;5.856;2022-08-06T11:52:02;24.50;36.10
67529;DHT22;54366;51.980;5.856;2022-08-06T11:54:30;24.40;36.20
67529;DHT22;54366;51.980;5.856;2022-08-06T11:59:25;24.20;36.00
67529;DHT22;54366;51.980;5.856;2022-08-06T12:01:52;24.10;36.10
67529;DHT22;54366;51.980;5.856;2022-08-06T12:09:45;24.00;36.40
67529;DHT22;54366;51.980;5.856;2022-08-06T12:14:51;24.10;36.40
67529;DHT22;54366;51.980;5.856;2022-08-06T12:17:18;24.20;36.70
67529;DHT22;54366;51.980;5.856;2022-08-06T12:19:50;24.40;35.40
67529;DHT22;54366;51.980;5.856;2022-08-06T12:22:20;24.70;35.40
67529;DHT22;54366;51.980;5.856;2022-08-06T12:24:50;25.00;35.30
67529;DHT22;54366;51.980;5.856;2022-08-06T12:27:17;25.10;35.50
67529;DHT22;54366;51.980;5.856;2022-08-06T12:29:44;25.10;35.20
67529;DHT22;54366;51.980;5.856;2022-08-06T12:32:31;25.00;35.30
67529;DHT22;54366;51.980;5.856;2022-08-06T12:35:00;24.90;35.40
67529;DHT22;54366;51.980;5.856;2022-08-06T12:37:35;24.70;35.60
67529;DHT22;54366;51.980;5.856;2022-08-06T12:40:06;24.60;35.70
67529;DHT22;54366;51.980;5.856;2022-08-06T12:42:51;24.50;35.50
67529;DHT22;54366;51.980;5.856;2022-08-06T12:45:25;24.50;36.20
67529;DHT22;54366;51.980;5.856;2022-08-06T12:48:10;24.60;35.50
67529;DHT22;54366;51.980;5.856;2022-08-06T12:50:42;24.70;35.00
67529;DHT22;54366;51.980;5.856;2022-08-06T12:53:10;24.90;34.40
67529;DHT22;54366;51.980;5.856;2022-08-06T12:55:50;25.10;34.60
67529;DHT22;54366;51.980;5.856;2022-08-06T12:58:29;25.30;33.70
67529;DHT22;54366;51.980;5.856;2022-08-06T13:00:58;25.40;33.50
67529;DHT22;54366;51.980;5.856;2022-08-06T13:03:25;25.40;33.40
67529;DHT22;54366;51.980;5.856;2022-08-06T13:05:58;25.30;33.80
67529;DHT22;54366;51.980;5.856;2022-08-06T13:08:25;25.20;34.30
67529;DHT22;54366;51.980;5.856;2022-08-06T13:10:55;25.10;33.50
67529;DHT22;54366;51.980;5.856;2022-08-06T13:13:40;25.10;33.30
67529;DHT22;54366;51.980;5.856;2022-08-06T13:16:09;24.90;33.90
67529;DHT22;54366;51.980;5.856;2022-08-06T13:18:38;24.90;34.30
67529;DHT22;54366;51.980;5.856;2022-08-06T13:21:17;24.80;34.30
67529;DHT22;54366;51.980;5.856;2022-08-06T13:23:49;24.60;34.50
67529;DHT22;54366;51.980;5.856;2022-08-06T13:26:24;24.60;35.00
67529;DHT22;54366;51.980;5.856;2022-08-06T13:31:30;24.50;35.60
67529;DHT22;54366;51.980;5.856;2022-08-06T13:34:05;24.50;35.60
67529;DHT22;54366;51.980;5.856;2022-08-06T13:36:33;24.50;35.10
67529;DHT22;54366;51.980;5.856;2022-08-06T13:39:25;24.50;35.20
67529;DHT22;54366;51.980;5.856;2022-08-06T13:42:10;24.60;34.70
67529;DHT22;54366;51.980;5.856;2022-08-06T13:44:41;24.50;35.00
67529;DHT22;54366;51.980;5.856;2022-08-06T13:47:11;24.50;34.80
67529;DHT22;54366;51.980;5.856;2022-08-06T13:49:43;24.40;34.20
67529;DHT22;54366;51.980;5.856;2022-08-06T13:52:10;24.40;34.70
67529;DHT22;54366;51.980;5.856;2022-08-06T13:54:37;24.30;34.80
67529;DHT22;54366;51.980;5.856;2022-08-06T13:57:03;24.30;34.80
67529;DHT22;54366;51.980;5.856;2022-08-06T13:59:31;24.30;34.90
67529;DHT22;54366;51.980;5.856;2022-08-06T14:01:58;24.30;35.30
67529;DHT22;54366;51.980;5.856;2022-08-06T14:04:25;24.30;35.50
67529;DHT22;54366;51.980;5.856;2022-08-06T14:06:53;24.30;35.50
67529;DHT22;54366;51.980;5.856;2022-08-06T14:09:22;24.30;35.50
67529;DHT22;54366;51.980;5.856;2022-08-06T14:11:54;24.40;35.60
67529;DHT22;54366;51.980;5.856;2022-08-06T14:14:22;24.40;35.80
67529;DHT22;54366;51.980;5.856;2022-08-06T14:16:48;24.40;35.50
67529;DHT22;54366;51.980;5.856;2022-08-06T14:19:15;24.30;35.10
67529;DHT22;54366;51.980;5.856;2022-08-06T14:21:42;24.30;35.50
67529;DHT22;54366;51.980;5.856;2022-08-06T14:24:08;24.40;35.70
67529;DHT22;54366;51.980;5.856;2022-08-06T14:26:34;24.30;35.80
67529;DHT22;54366;51.980;5.856;2022-08-06T14:29:00;24.30;35.70
67529;DHT22;54366;51.980;5.856;2022-08-06T14:31:31;24.30;35.80
67529;DHT22;54366;51.980;5.856;2022-08-06T14:33:58;24.30;35.40
67529;DHT22;54366;51.980;5.856;2022-08-06T14:36:30;24.30;34.90
67529;DHT22;54366;51.980;5.856;2022-08-06T14:38:57;24.30;35.00
67529;DHT22;54366;51.980;5.856;2022-08-06T14:41:23;24.20;34.80
67529;DHT22;54366;51.980;5.856;2022-08-06T14:44:10;24.20;34.90
67529;DHT22;54366;51.980;5.856;2022-08-06T14:46:55;24.20;34.80
67529;DHT22;54366;51.980;5.856;2022-08-06T14:49:22;24.10;34.50
67529;DHT22;54366;51.980;5.856;2022-08-06T14:51:48;24.10;34.90
67529;DHT22;54366;51.980;5.856;2022-08-06T14:54:16;24.10;35.30
67529;DHT22;54366;51.980;5.856;2022-08-06T14:56:43;24.10;35.50
67529;DHT22;54366;51.980;5.856;2022-08-06T14:59:09;24.10;35.40
67529;DHT22;54366;51.980;5.856;2022-08-06T15:01:35;24.00;35.00
67529;DHT22;54366;51.980;5.856;2022-08-06T15:04:02;24.00;35.30
67529;DHT22;54366;51.980;5.856;2022-08-06T15:06:28;24.00;35.90
67529;DHT22;54366;51.980;5.856;2022-08-06T15:08:54;24.00;35.90
67529;DHT22;54366;51.980;5.856;2022-08-06T15:11:21;24.00;35.40
67529;DHT22;54366;51.980;5.856;2022-08-06T15:13:47;24.00;35.90
67529;DHT22;54366;51.980;5.856;2022-08-06T15:16:13;24.00;36.10
67529;DHT22;54366;51.980;5.856;2022-08-06T15:18:40;24.10;35.70
67529;DHT22;54366;51.980;5.856;2022-08-06T15:21:08;24.00;35.70
67529;DHT22;54366;51.980;5.856;2022-08-06T15:23:34;24.00;35.90
67529;DHT22;54366;51.980;5.856;2022-08-06T15:26:00;24.00;36.70
67529;DHT22;54366;51.980;5.856;2022-08-06T15:28:27;24.00;36.90
67529;DHT22;54366;51.980;5.856;2022-08-06T15:30:53;24.00;36.10
67529;DHT22;54366;51.980;5.856;2022-08-06T15:33:19;24.00;35.90
67529;DHT22;54366;51.980;5.856;2022-08-06T15:35:45;24.00;35.80
67529;DHT22;54366;51.980;5.856;2022-08-06T15:38:12;24.00;36.20
67529;DHT22;54366;51.980;5.856;2022-08-06T15:40:38;24.00;35.90
67529;DHT22;54366;51.980;5.856;2022-08-06T15:43:05;24.00;35.60
67529;DHT22;54366;51.980;5.856;2022-08-06T15:45:31;23.90;36.20
67529;DHT22;54366;51.980;5.856;2022-08-06T15:47:57;23.90;36.70
67529;DHT22;54366;51.980;5.856;2022-08-06T15:50:24;23.80;36.30
67529;DHT22;54366;51.980;5.856;2022-08-06T15:52:51;23.80;36.70
67529;DHT22;54366;51.980;5.856;2022-08-06T15:55:18;23.80;36.70
67529;DHT22;54366;51.980;5.856;2022-08-06T15:57:45;23.70;37.00
67529;DHT22;54366;51.980;5.856;2022-08-06T16:00:11;23.60;36.90
67529;DHT22;54366;51.980;5.856;2022-08-06T16:02:38;23.60;36.80
67529;DHT22;54366;51.980;5.856;2022-08-06T16:05:04;23.60;36.90
67529;DHT22;54366;51.980;5.856;2022-08-06T16:07:30;23.50;37.10
67529;DHT22;54366;51.980;5.856;2022-08-06T16:09:57;23.50;37.40
67529;DHT22;54366;51.980;5.856;2022-08-06T16:12:23;23.40;37.30
67529;DHT22;54366;51.980;5.856;2022-08-06T16:14:50;23.40;37.20
67529;DHT22;54366;51.980;5.856;2022-08-06T16:17:16;23.40;37.30
67529;DHT22;54366;51.980;5.856;2022-08-06T16:19:43;23.40;37.50
67529;DHT22;54366;51.980;5.856;2022-08-06T16:22:09;23.30;38.00
67529;DHT22;54366;51.980;5.856;2022-08-06T16:24:35;23.30;37.70
67529;DHT22;54366;51.980;5.856;2022-08-06T16:27:01;23.30;38.00
67529;DHT22;54366;51.980;5.856;2022-08-06T16:29:32;23.30;37.60
67529;DHT22;54366;51.980;5.856;2022-08-06T16:32:00;23.30;37.60
67529;DHT22;54366;51.980;5.856;2022-08-06T16:34:28;23.30;37.50
67529;DHT22;54366;51.980;5.856;2022-08-06T16:36:55;23.30;37.60
67529;DHT22;54366;51.980;5.856;2022-08-06T16:39:21;23.30;37.90
67529;DHT22;54366;51.980;5.856;2022-08-06T16:41:47;23.30;37.90